sensor_id;sensor_type;location;lat;lon;timestamp;P1;durP1;ratioP1;P2;durP2;ratioP2
38513;SDS011;24282;48.400;10.808;2023-10-13T00:02:01;6.53;;;3.47;;
38513;SDS011;24282;48.400;10.808;2023-10-13T00:04:30;6.82;;;3.30;;
38513;SDS011;24282;48.400;10.808;2023-10-13T00:07:00;5.88;;;3.65;;
38513;SDS011;24282;48.400;10.808;2023-10-13T00:09:27;5.20;;;3.20;;
38513;SDS011;24282;48.400;10.808;2023-10-13T00:12:07;4.75;;;3.08;;
38513;SDS011;24282;48.400;10.808;2023-10-13T00:14:39;5.43;;;3.10;;
38513;SDS011;24282;48.400;10.808;2023-10-13T00:17:06;4.80;;;3.00;;
38513;SDS011;24282;48.400;10.808;2023-10-13T00:19:34;5.97;;;3.28;;
38513;SDS011;24282;48.400;10.808;2023-10-13T00:22:11;4.78;;;2.88;;
38513;SDS011;24282;48.400;10.808;2023-10-13T00:24:38;4.63;;;2.65;;
38513;SDS011;24282;48.400;10.808;2023-10-13T00:27:10;5.75;;;3.30;;
38513;SDS011;24282;48.400;10.808;2023-10-13T00:29:56;5.70;;;2.78;;
38513;SDS011;24282;48.400;10.808;2023-10-13T00:32:42;5.20;;;2.90;;
38513;SDS011;24282;48.400;10.808;2023-10-13T00:35:19;7.63;;;3.42;;
38513;SDS011;24282;48.400;10.808;2023-10-13T00:37:57;4.63;;;3.40;;
38513;SDS011;24282;48.400;10.808;2023-10-13T00:40:29;4.38;;;2.45;;
38513;SDS011;24282;48.400;10.808;2023-10-13T00:42:56;4.88;;;3.15;;
38513;SDS011;24282;48.400;10.808;2023-10-13T00:48:30;4.95;;;2.80;;
38513;SDS011;24282;48.400;10.808;2023-10-13T00:51:21;4.82;;;2.95;;
38513;SDS011;24282;48.400;10.808;2023-10-13T00:54:06;6.38;;;3.58;;
38513;SDS011;24282;48.400;10.808;2023-10-13T00:56:38;3.85;;;2.78;;
38513;SDS011;24282;48.400;10.808;2023-10-13T00:59:29;4.55;;;2.65;;
38513;SDS011;24282;48.400;10.808;2023-10-13T01:01:59;5.95;;;2.85;;
38513;SDS011;24282;48.400;10.808;2023-10-13T01:04:45;4.90;;;3.03;;
38513;SDS011;24282;48.400;10.808;2023-10-13T01:07:12;5.10;;;2.83;;
38513;SDS011;24282;48.400;10.808;2023-10-13T01:09:41;4.78;;;2.92;;
38513;SDS011;24282;48.400;10.808;2023-10-13T01:12:07;7.15;;;3.17;;
38513;SDS011;24282;48.400;10.808;2023-10-13T01:14:33;5.75;;;3.20;;
38513;SDS011;24282;48.400;10.808;2023-10-13T01:17:01;4.72;;;2.97;;
38513;SDS011;24282;48.400;10.808;2023-10-13T01:19:29;4.90;;;2.50;;
38513;SDS011;24282;48.400;10.808;2023-10-13T01:21:55;4.88;;;3.08;;
38513;SDS011;24282;48.400;10.808;2023-10-13T01:24:32;5.70;;;3.10;;
38513;SDS011;24282;48.400;10.808;2023-10-13T01:27:04;4.15;;;2.42;;
38513;SDS011;24282;48.400;10.808;2023-10-13T01:29:46;5.55;;;2.80;;
38513;SDS011;24282;48.400;10.808;2023-10-13T01:32:21;6.97;;;3.08;;
38513;SDS011;24282;48.400;10.808;2023-10-13T01:34:48;4.78;;;3.10;;
38513;SDS011;24282;48.400;10.808;2023-10-13T01:37:15;5.78;;;3.30;;
38513;SDS011;24282;48.400;10.808;2023-10-13T01:39:41;4.82;;;3.03;;
38513;SDS011;24282;48.400;10.808;2023-10-13T01:42:07;5.55;;;2.95;;
38513;SDS011;24282;48.400;10.808;2023-10-13T01:44:33;5.22;;;3.30;;
38513;SDS011;24282;48.400;10.808;2023-10-13T01:46:59;5.40;;;2.95;;
38513;SDS011;24282;48.400;10.808;2023-10-13T01:49:34;5.40;;;2.90;;
38513;SDS011;24282;48.400;10.808;2023-10-13T01:52:13;6.07;;;3.05;;
38513;SDS011;24282;48.400;10.808;2023-10-13T01:54:46;7.15;;;3.33;;
38513;SDS011;24282;48.400;10.808;2023-10-13T01:57:14;5.45;;;2.83;;
38513;SDS011;24282;48.400;10.808;2023-10-13T01:59:48;4.97;;;2.90;;
38513;SDS011;24282;48.400;10.808;2023-10-13T02:02:14;7.78;;;2.97;;
38513;SDS011;24282;48.400;10.808;2023-10-13T02:04:51;7.53;;;2.83;;
38513;SDS011;24282;48.400;10.808;2023-10-13T02:07:27;4.32;;;2.70;;
38513;SDS011;24282;48.400;10.808;2023-10-13T02:09:56;6.45;;;2.90;;
38513;SDS011;24282;48.400;10.808;2023-10-13T02:12:22;7.10;;;3.40;;
38513;SDS011;24282;48.400;10.808;2023-10-13T02:14:54;5.83;;;3.07;;
38513;SDS011;24282;48.400;10.808;2023-10-13T02:17:19;5.68;;;3.22;;
38513;SDS011;24282;48.400;10.808;2023-10-13T02:19:46;5.53;;;3.20;;
38513;SDS011;24282;48.400;10.808;2023-10-13T02:22:12;4.00;;;2.58;;
38513;SDS011;24282;48.400;10.808;2023-10-13T02:24:59;7.85;;;3.40;;
38513;SDS011;24282;48.400;10.808;2023-10-13T02:27:34;5.13;;;3.00;;
38513;SDS011;24282;48.400;10.808;2023-10-13T02:30:07;6.35;;;3.03;;
38513;SDS011;24282;48.400;10.808;2023-10-13T02:32:39;4.40;;;2.88;;
38513;SDS011;24282;48.400;10.808;2023-10-13T02:35:09;6.13;;;3.05;;
38513;SDS011;24282;48.400;10.808;2023-10-13T02:37:41;5.07;;;3.17;;
38513;SDS011;24282;48.400;10.808;2023-10-13T02:40:19;4.97;;;3.00;;
38513;SDS011;24282;48.400;10.808;2023-10-13T02:42:48;5.72;;;2.95;;
38513;SDS011;24282;48.400;10.808;2023-10-13T02:45:14;6.88;;;3.00;;
38513;SDS011;24282;48.400;10.808;2023-10-13T02:47:40;5.50;;;2.78;;
38513;SDS011;24282;48.400;10.808;2023-10-13T02:50:09;4.82;;;3.03;;
38513;SDS011;24282;48.400;10.808;2023-10-13T02:52:38;4.88;;;2.88;;
38513;SDS011;24282;48.400;10.808;2023-10-13T02:55:07;5.47;;;2.60;;
38513;SDS011;24282;48.400;10.808;2023-10-13T02:57:35;6.90;;;3.08;;
38513;SDS011;24282;48.400;10.808;2023-10-13T03:00:01;6.70;;;3.03;;
38513;SDS011;24282;48.400;10.808;2023-10-13T03:02:47;4.18;;;2.53;;
38513;SDS011;24282;48.400;10.808;2023-10-13T03:05:23;4.93;;;3.10;;
38513;SDS011;24282;48.400;10.808;2023-10-13T03:07:49;4.35;;;2.63;;
38513;SDS011;24282;48.400;10.808;2023-10-13T03:10:16;5.78;;;2.63;;
38513;SDS011;24282;48.400;10.808;2023-10-13T03:12:44;6.13;;;3.08;;
38513;SDS011;24282;48.400;10.808;2023-10-13T03:15:13;5.22;;;3.05;;
38513;SDS011;24282;48.400;10.808;2023-10-13T03:17:55;7.78;;;3.08;;
38513;SDS011;24282;48.400;10.808;2023-10-13T03:20:23;7.30;;;3.38;;
38513;SDS011;24282;48.400;10.808;2023-10-13T03:22:56;4.70;;;2.80;;
38513;SDS011;24282;48.400;10.808;2023-10-13T03:25:23;7.80;;;3.58;;
38513;SDS011;24282;48.400;10.808;2023-10-13T03:27:50;6.28;;;3.00;;
38513;SDS011;24282;48.400;10.808;2023-10-13T03:30:17;5.72;;;3.25;;
38513;SDS011;24282;48.400;10.808;2023-10-13T03:32:43;5.22;;;2.97;;
38513;SDS011;24282;48.400;10.808;2023-10-13T03:35:11;6.80;;;2.67;;
38513;SDS011;24282;48.400;10.808;2023-10-13T03:37:49;6.32;;;3.00;;
38513;SDS011;24282;48.400;10.808;2023-10-13T03:40:22;5.30;;;2.90;;
38513;SDS011;24282;48.400;10.808;2023-10-13T03:42:49;4.82;;;2.67;;
38513;SDS011;24282;48.400;10.808;2023-10-13T03:45:35;5.70;;;3.35;;
38513;SDS011;24282;48.400;10.808;2023-10-13T03:48:08;6.75;;;3.35;;
38513;SDS011;24282;48.400;10.808;2023-10-13T03:50:50;4.13;;;2.70;;
38513;SDS011;24282;48.400;10.808;2023-10-13T03:53:28;4.85;;;2.70;;
38513;SDS011;24282;48.400;10.808;2023-10-13T03:58:36;7.75;;;2.92;;
38513;SDS011;24282;48.400;10.808;2023-10-13T04:01:12;3.78;;;2.58;;
38513;SDS011;24282;48.400;10.808;2023-10-13T04:03:42;5.63;;;3.33;;
38513;SDS011;24282;48.400;10.808;2023-10-13T04:06:29;5.25;;;2.72;;
38513;SDS011;24282;48.400;10.808;2023-10-13T04:09:22;4.80;;;2.45;;
38513;SDS011;24282;48.400;10.808;2023-10-13T04:11:48;4.57;;;2.88;;
38513;SDS011;24282;48.400;10.808;2023-10-13T04:14:33;8.82;;;3.17;;
38513;SDS011;24282;48.400;10.808;2023-10-13T04:17:21;4.68;;;2.72;;
38513;SDS011;24282;48.400;10.808;2023-10-13T04:19:55;5.05;;;3.40;;
38513;SDS011;24282;48.400;10.808;2023-10-13T04:25:15;4.95;;;3.72;;
38513;SDS011;24282;48.400;10.808;2023-10-13T04:28:10;6.00;;;3.38;;
38513;SDS011;24282;48.400;10.808;2023-10-13T04:38:47;5.28;;;3.10;;
38513;SDS011;24282;48.400;10.808;2023-10-13T04:44:15;5.63;;;3.20;;
38513;SDS011;24282;48.400;10.808;2023-10-13T04:47:00;5.70;;;2.83;;
38513;SDS011;24282;48.400;10.808;2023-10-13T04:49:31;4.22;;;3.00;;
38513;SDS011;24282;48.400;10.808;2023-10-13T04:52:14;5.55;;;3.20;;
38513;SDS011;24282;48.400;10.808;2023-10-13T04:54:59;5.97;;;3.85;;
38513;SDS011;24282;48.400;10.808;2023-10-13T04:57:35;8.18;;;3.17;;
38513;SDS011;24282;48.400;10.808;2023-10-13T05:00:18;6.40;;;2.63;;
38513;SDS011;24282;48.400;10.808;2023-10-13T05:02:44;9.30;;;3.40;;
38513;SDS011;24282;48.400;10.808;2023-10-13T05:05:25;7.33;;;3.63;;
38513;SDS011;24282;48.400;10.808;2023-10-13T05:08:30;6.22;;;3.13;;
38513;SDS011;24282;48.400;10.808;2023-10-13T05:11:14;7.95;;;3.17;;
38513;SDS011;24282;48.400;10.808;2023-10-13T05:14:00;6.30;;;3.33;;
38513;SDS011;24282;48.400;10.808;2023-10-13T05:16:44;5.10;;;3.30;;
38513;SDS011;24282;48.400;10.808;2023-10-13T05:19:28;7.77;;;3.40;;
38513;SDS011;24282;48.400;10.808;2023-10-13T05:22:13;6.60;;;3.13;;
38513;SDS011;24282;48.400;10.808;2023-10-13T05:24:57;6.07;;;3.13;;
38513;SDS011;24282;48.400;10.808;2023-10-13T05:27:42;7.63;;;3.50;;
38513;SDS011;24282;48.400;10.808;2023-10-13T05:30:34;5.47;;;2.97;;
38513;SDS011;24282;48.400;10.808;2023-10-13T05:33:18;6.50;;;3.13;;
38513;SDS011;24282;48.400;10.808;2023-10-13T05:36:02;6.83;;;3.67;;
38513;SDS011;24282;48.400;10.808;2023-10-13T05:38:52;6.13;;;3.17;;
38513;SDS011;24282;48.400;10.808;2023-10-13T05:41:37;6.23;;;3.53;;
38513;SDS011;24282;48.400;10.808;2023-10-13T05:44:32;5.50;;;3.13;;
38513;SDS011;24282;48.400;10.808;2023-10-13T05:46:58;5.70;;;3.50;;
38513;SDS011;24282;48.400;10.808;2023-10-13T05:49:43;8.13;;;4.00;;
38513;SDS011;24282;48.400;10.808;2023-10-13T05:52:30;7.95;;;2.92;;
38513;SDS011;24282;48.400;10.808;2023-10-13T05:55:14;5.50;;;3.10;;
38513;SDS011;24282;48.400;10.808;2023-10-13T05:57:58;6.27;;;2.93;;
38513;SDS011;24282;48.400;10.808;2023-10-13T06:00:43;7.93;;;3.07;;
38513;SDS011;24282;48.400;10.808;2023-10-13T06:03:27;6.13;;;3.83;;
38513;SDS011;24282;48.400;10.808;2023-10-13T06:06:11;5.57;;;3.00;;
38513;SDS011;24282;48.400;10.808;2023-10-13T06:08:56;4.73;;;3.20;;
38513;SDS011;24282;48.400;10.808;2023-10-13T06:11:40;7.17;;;3.63;;
38513;SDS011;24282;48.400;10.808;2023-10-13T06:14:24;5.73;;;3.37;;
38513;SDS011;24282;48.400;10.808;2023-10-13T06:17:09;5.83;;;3.40;;
38513;SDS011;24282;48.400;10.808;2023-10-13T06:19:53;4.40;;;3.17;;
38513;SDS011;24282;48.400;10.808;2023-10-13T06:22:38;5.53;;;2.93;;
38513;SDS011;24282;48.400;10.808;2023-10-13T06:25:22;6.37;;;3.50;;
38513;SDS011;24282;48.400;10.808;2023-10-13T06:28:06;5.73;;;3.30;;
38513;SDS011;24282;48.400;10.808;2023-10-13T06:30:54;6.70;;;2.87;;
38513;SDS011;24282;48.400;10.808;2023-10-13T06:33:23;6.72;;;3.60;;
38513;SDS011;24282;48.400;10.808;2023-10-13T06:35:54;5.70;;;3.33;;
38513;SDS011;24282;48.400;10.808;2023-10-13T06:38:23;7.23;;;3.17;;
38513;SDS011;24282;48.400;10.808;2023-10-13T06:40:49;5.53;;;3.50;;
38513;SDS011;24282;48.400;10.808;2023-10-13T06:43:18;7.87;;;3.90;;
38513;SDS011;24282;48.400;10.808;2023-10-13T06:45:49;5.60;;;3.23;;
38513;SDS011;24282;48.400;10.808;2023-10-13T06:48:27;5.63;;;3.27;;
38513;SDS011;24282;48.400;10.808;2023-10-13T06:50:58;7.30;;;3.70;;
38513;SDS011;24282;48.400;10.808;2023-10-13T06:53:29;6.17;;;3.47;;
38513;SDS011;24282;48.400;10.808;2023-10-13T06:56:01;5.30;;;3.63;;
38513;SDS011;24282;48.400;10.808;2023-10-13T06:58:28;7.30;;;4.20;;
38513;SDS011;24282;48.400;10.808;2023-10-13T07:00:54;7.07;;;4.13;;
38513;SDS011;24282;48.400;10.808;2023-10-13T07:03:22;7.65;;;4.40;;
38513;SDS011;24282;48.400;10.808;2023-10-13T07:05:48;8.27;;;4.43;;
38513;SDS011;24282;48.400;10.808;2023-10-13T07:08:14;6.30;;;3.70;;
38513;SDS011;24282;48.400;10.808;2023-10-13T07:10:54;5.80;;;3.73;;
38513;SDS011;24282;48.400;10.808;2023-10-13T07:13:43;5.90;;;3.80;;
38513;SDS011;24282;48.400;10.808;2023-10-13T07:16:15;5.93;;;3.23;;
38513;SDS011;24282;48.400;10.808;2023-10-13T07:18:41;6.97;;;3.87;;
38513;SDS011;24282;48.400;10.808;2023-10-13T07:21:15;5.55;;;3.63;;
38513;SDS011;24282;48.400;10.808;2023-10-13T07:23:41;6.45;;;3.67;;
38513;SDS011;24282;48.400;10.808;2023-10-13T07:26:25;7.90;;;3.83;;
38513;SDS011;24282;48.400;10.808;2023-10-13T07:28:51;6.57;;;3.22;;
38513;SDS011;24282;48.400;10.808;2023-10-13T07:31:17;4.63;;;3.15;;
38513;SDS011;24282;48.400;10.808;2023-10-13T07:33:46;7.93;;;2.85;;
38513;SDS011;24282;48.400;10.808;2023-10-13T07:36:12;6.60;;;2.95;;
38513;SDS011;24282;48.400;10.808;2023-10-13T07:38:43;5.60;;;3.20;;
38513;SDS011;24282;48.400;10.808;2023-10-13T07:41:13;6.60;;;3.22;;
38513;SDS011;24282;48.400;10.808;2023-10-13T07:43:42;5.50;;;2.92;;
38513;SDS011;24282;48.400;10.808;2023-10-13T07:46:10;8.73;;;3.10;;
38513;SDS011;24282;48.400;10.808;2023-10-13T07:48:37;6.25;;;2.85;;
38513;SDS011;24282;48.400;10.808;2023-10-13T07:51:07;5.63;;;3.20;;
38513;SDS011;24282;48.400;10.808;2023-10-13T07:53:45;6.25;;;3.17;;
38513;SDS011;24282;48.400;10.808;2023-10-13T07:56:14;5.68;;;2.97;;
38513;SDS011;24282;48.400;10.808;2023-10-13T07:58:43;4.78;;;2.70;;
38513;SDS011;24282;48.400;10.808;2023-10-13T08:01:25;5.30;;;2.95;;
38513;SDS011;24282;48.400;10.808;2023-10-13T08:03:52;6.20;;;3.00;;
38513;SDS011;24282;48.400;10.808;2023-10-13T08:06:36;4.88;;;2.42;;
38513;SDS011;24282;48.400;10.808;2023-10-13T08:09:03;5.22;;;2.67;;
38513;SDS011;24282;48.400;10.808;2023-10-13T08:11:53;7.40;;;2.70;;
38513;SDS011;24282;48.400;10.808;2023-10-13T08:14:20;5.05;;;2.80;;
38513;SDS011;24282;48.400;10.808;2023-10-13T08:16:54;7.35;;;2.40;;
38513;SDS011;24282;48.400;10.808;2023-10-13T08:19:25;6.13;;;2.60;;
38513;SDS011;24282;48.400;10.808;2023-10-13T08:21:53;5.07;;;2.33;;
38513;SDS011;24282;48.400;10.808;2023-10-13T08:24:24;5.38;;;2.63;;
38513;SDS011;24282;48.400;10.808;2023-10-13T08:27:18;4.82;;;2.30;;
38513;SDS011;24282;48.400;10.808;2023-10-13T08:30:02;6.65;;;3.38;;
38513;SDS011;24282;48.400;10.808;2023-10-13T08:32:47;5.28;;;2.40;;
38513;SDS011;24282;48.400;10.808;2023-10-13T08:35:24;8.55;;;3.05;;
38513;SDS011;24282;48.400;10.808;2023-10-13T08:37:59;5.80;;;2.67;;
38513;SDS011;24282;48.400;10.808;2023-10-13T08:40:29;8.15;;;2.80;;
38513;SDS011;24282;48.400;10.808;2023-10-13T08:43:14;5.25;;;2.25;;
38513;SDS011;24282;48.400;10.808;2023-10-13T08:45:42;6.53;;;2.65;;
38513;SDS011;24282;48.400;10.808;2023-10-13T08:48:09;8.40;;;2.75;;
38513;SDS011;24282;48.400;10.808;2023-10-13T08:50:50;5.72;;;2.50;;
38513;SDS011;24282;48.400;10.808;2023-10-13T08:53:20;8.30;;;2.40;;
38513;SDS011;24282;48.400;10.808;2023-10-13T08:58:58;5.80;;;2.00;;
38513;SDS011;24282;48.400;10.808;2023-10-13T09:01:27;5.88;;;1.92;;
38513;SDS011;24282;48.400;10.808;2023-10-13T09:04:15;6.15;;;1.98;;
38513;SDS011;24282;48.400;10.808;2023-10-13T09:07:02;4.05;;;2.08;;
38513;SDS011;24282;48.400;10.808;2023-10-13T09:09:50;3.65;;;1.92;;
38513;SDS011;24282;48.400;10.808;2023-10-13T09:12:24;4.28;;;2.05;;
38513;SDS011;24282;48.400;10.808;2023-10-13T09:14:57;7.53;;;2.30;;
38513;SDS011;24282;48.400;10.808;2023-10-13T09:17:26;3.67;;;1.83;;
38513;SDS011;24282;48.400;10.808;2023-10-13T09:20:00;4.53;;;1.63;;
38513;SDS011;24282;48.400;10.808;2023-10-13T09:22:46;4.72;;;1.98;;
38513;SDS011;24282;48.400;10.808;2023-10-13T09:25:36;4.45;;;1.92;;
38513;SDS011;24282;48.400;10.808;2023-10-13T09:28:15;4.45;;;1.85;;
38513;SDS011;24282;48.400;10.808;2023-10-13T09:30:50;4.55;;;1.88;;
38513;SDS011;24282;48.400;10.808;2023-10-13T09:33:28;6.78;;;1.75;;
38513;SDS011;24282;48.400;10.808;2023-10-13T09:35:58;7.53;;;2.42;;
38513;SDS011;24282;48.400;10.808;2023-10-13T09:38:26;7.57;;;1.95;;
38513;SDS011;24282;48.400;10.808;2023-10-13T09:40:53;4.90;;;2.08;;
38513;SDS011;24282;48.400;10.808;2023-10-13T09:43:22;3.88;;;1.70;;
38513;SDS011;24282;48.400;10.808;2023-10-13T09:45:50;7.18;;;3.33;;
38513;SDS011;24282;48.400;10.808;2023-10-13T09:51:04;3.40;;;1.85;;
38513;SDS011;24282;48.400;10.808;2023-10-13T09:53:33;3.83;;;1.80;;
38513;SDS011;24282;48.400;10.808;2023-10-13T09:58:53;4.70;;;1.92;;
38513;SDS011;24282;48.400;10.808;2023-10-13T10:01:30;10.13;;;2.33;;
38513;SDS011;24282;48.400;10.808;2023-10-13T10:04:09;5.40;;;1.75;;
38513;SDS011;24282;48.400;10.808;2023-10-13T10:07:03;4.40;;;1.67;;
38513;SDS011;24282;48.400;10.808;2023-10-13T10:09:28;3.92;;;1.98;;
38513;SDS011;24282;48.400;10.808;2023-10-13T10:17:05;5.10;;;2.35;;
38513;SDS011;24282;48.400;10.808;2023-10-13T10:19:50;6.95;;;2.00;;
38513;SDS011;24282;48.400;10.808;2023-10-13T10:25:05;4.03;;;1.70;;
38513;SDS011;24282;48.400;10.808;2023-10-13T10:28:00;3.88;;;1.92;;
38513;SDS011;24282;48.400;10.808;2023-10-13T10:30:30;4.53;;;1.67;;
38513;SDS011;24282;48.400;10.808;2023-10-13T10:32:59;6.10;;;2.05;;
38513;SDS011;24282;48.400;10.808;2023-10-13T10:35:27;7.47;;;1.85;;
38513;SDS011;24282;48.400;10.808;2023-10-13T10:38:13;5.93;;;1.92;;
38513;SDS011;24282;48.400;10.808;2023-10-13T10:40:49;4.43;;;1.85;;
38513;SDS011;24282;48.400;10.808;2023-10-13T10:43:22;9.02;;;2.22;;
38513;SDS011;24282;48.400;10.808;2023-10-13T10:45:52;7.47;;;1.95;;
38513;SDS011;24282;48.400;10.808;2023-10-13T10:48:24;6.47;;;2.22;;
38513;SDS011;24282;48.400;10.808;2023-10-13T10:50:56;5.13;;;2.05;;
38513;SDS011;24282;48.400;10.808;2023-10-13T10:53:24;4.75;;;2.10;;
38513;SDS011;24282;48.400;10.808;2023-10-13T10:56:08;6.00;;;1.98;;
38513;SDS011;24282;48.400;10.808;2023-10-13T10:58:57;4.63;;;1.80;;
38513;SDS011;24282;48.400;10.808;2023-10-13T11:01:28;9.10;;;2.50;;
38513;SDS011;24282;48.400;10.808;2023-10-13T11:04:05;5.00;;;1.77;;
38513;SDS011;24282;48.400;10.808;2023-10-13T11:06:44;4.07;;;1.67;;
38513;SDS011;24282;48.400;10.808;2023-10-13T11:09:12;5.28;;;1.83;;
38513;SDS011;24282;48.400;10.808;2023-10-13T11:14:40;8.75;;;2.13;;
38513;SDS011;24282;48.400;10.808;2023-10-13T11:17:07;6.95;;;2.03;;
38513;SDS011;24282;48.400;10.808;2023-10-13T11:19:43;5.90;;;2.17;;
38513;SDS011;24282;48.400;10.808;2023-10-13T11:22:27;6.53;;;1.92;;
38513;SDS011;24282;48.400;10.808;2023-10-13T11:25:07;4.70;;;2.00;;
38513;SDS011;24282;48.400;10.808;2023-10-13T11:27:36;6.50;;;2.00;;
38513;SDS011;24282;48.400;10.808;2023-10-13T11:32:39;3.95;;;1.77;;
38513;SDS011;24282;48.400;10.808;2023-10-13T11:35:08;7.97;;;2.03;;
38513;SDS011;24282;48.400;10.808;2023-10-13T11:37:47;5.85;;;1.90;;
38513;SDS011;24282;48.400;10.808;2023-10-13T11:40:21;5.78;;;1.60;;
38513;SDS011;24282;48.400;10.808;2023-10-13T11:43:07;7.00;;;2.25;;
38513;SDS011;24282;48.400;10.808;2023-10-13T11:45:39;5.03;;;1.50;;
38513;SDS011;24282;48.400;10.808;2023-10-13T11:48:19;6.30;;;1.85;;
38513;SDS011;24282;48.400;10.808;2023-10-13T11:51:01;5.53;;;1.65;;
38513;SDS011;24282;48.400;10.808;2023-10-13T11:56:01;6.78;;;2.17;;
38513;SDS011;24282;48.400;10.808;2023-10-13T11:58:38;5.28;;;1.80;;
38513;SDS011;24282;48.400;10.808;2023-10-13T12:01:05;7.63;;;2.30;;
38513;SDS011;24282;48.400;10.808;2023-10-13T12:03:37;3.58;;;1.70;;
38513;SDS011;24282;48.400;10.808;2023-10-13T12:06:40;6.53;;;2.38;;
38513;SDS011;24282;48.400;10.808;2023-10-13T12:11:45;4.45;;;1.60;;
38513;SDS011;24282;48.400;10.808;2023-10-13T12:14:13;6.20;;;2.10;;
38513;SDS011;24282;48.400;10.808;2023-10-13T12:16:47;7.38;;;2.25;;
38513;SDS011;24282;48.400;10.808;2023-10-13T12:19:16;5.07;;;1.77;;
38513;SDS011;24282;48.400;10.808;2023-10-13T12:21:43;4.63;;;1.90;;
38513;SDS011;24282;48.400;10.808;2023-10-13T12:24:09;5.28;;;2.15;;
38513;SDS011;24282;48.400;10.808;2023-10-13T12:26:56;6.53;;;2.20;;
38513;SDS011;24282;48.400;10.808;2023-10-13T12:29:23;4.63;;;1.73;;
38513;SDS011;24282;48.400;10.808;2023-10-13T12:31:53;8.88;;;2.20;;
38513;SDS011;24282;48.400;10.808;2023-10-13T12:34:37;5.15;;;1.92;;
38513;SDS011;24282;48.400;10.808;2023-10-13T12:37:29;6.65;;;2.40;;
38513;SDS011;24282;48.400;10.808;2023-10-13T12:40:02;9.95;;;2.70;;
38513;SDS011;24282;48.400;10.808;2023-10-13T12:42:52;8.63;;;2.42;;
38513;SDS011;24282;48.400;10.808;2023-10-13T12:45:40;5.15;;;1.80;;
38513;SDS011;24282;48.400;10.808;2023-10-13T12:48:25;4.18;;;1.75;;
38513;SDS011;24282;48.400;10.808;2023-10-13T12:51:09;5.80;;;2.05;;
38513;SDS011;24282;48.400;10.808;2023-10-13T12:53:53;4.97;;;2.13;;
38513;SDS011;24282;48.400;10.808;2023-10-13T12:56:20;7.90;;;1.83;;
38513;SDS011;24282;48.400;10.808;2023-10-13T12:58:53;3.60;;;2.10;;
38513;SDS011;24282;48.400;10.808;2023-10-13T13:01:26;5.32;;;1.73;;
38513;SDS011;24282;48.400;10.808;2023-10-13T13:04:07;5.13;;;2.08;;
38513;SDS011;24282;48.400;10.808;2023-10-13T13:06:37;3.95;;;2.08;;
38513;SDS011;24282;48.400;10.808;2023-10-13T13:09:05;6.85;;;2.15;;
38513;SDS011;24282;48.400;10.808;2023-10-13T13:11:34;5.13;;;1.98;;
38513;SDS011;24282;48.400;10.808;2023-10-13T13:14:05;7.95;;;1.95;;
38513;SDS011;24282;48.400;10.808;2023-10-13T13:16:33;6.03;;;2.00;;
38513;SDS011;24282;48.400;10.808;2023-10-13T13:18:59;6.47;;;2.13;;
38513;SDS011;24282;48.400;10.808;2023-10-13T13:21:28;6.32;;;1.75;;
38513;SDS011;24282;48.400;10.808;2023-10-13T13:23:54;4.85;;;2.15;;
38513;SDS011;24282;48.400;10.808;2023-10-13T13:26:20;4.20;;;2.10;;
38513;SDS011;24282;48.400;10.808;2023-10-13T13:28:47;4.85;;;2.17;;
38513;SDS011;24282;48.400;10.808;2023-10-13T13:31:19;5.30;;;1.95;;
38513;SDS011;24282;48.400;10.808;2023-10-13T13:33:55;6.70;;;2.15;;
38513;SDS011;24282;48.400;10.808;2023-10-13T13:36:21;7.28;;;2.33;;
38513;SDS011;24282;48.400;10.808;2023-10-13T13:38:47;5.55;;;1.95;;
38513;SDS011;24282;48.400;10.808;2023-10-13T13:41:15;6.10;;;2.33;;
38513;SDS011;24282;48.400;10.808;2023-10-13T13:43:45;4.13;;;1.80;;
38513;SDS011;24282;48.400;10.808;2023-10-13T13:46:17;5.65;;;2.78;;
38513;SDS011;24282;48.400;10.808;2023-10-13T13:48:44;4.72;;;2.15;;
38513;SDS011;24282;48.400;10.808;2023-10-13T13:51:13;4.32;;;2.08;;
38513;SDS011;24282;48.400;10.808;2023-10-13T13:53:51;3.50;;;1.83;;
38513;SDS011;24282;48.400;10.808;2023-10-13T13:56:18;4.57;;;1.98;;
38513;SDS011;24282;48.400;10.808;2023-10-13T13:58:44;6.32;;;1.63;;
38513;SDS011;24282;48.400;10.808;2023-10-13T14:01:11;4.05;;;2.00;;
38513;SDS011;24282;48.400;10.808;2023-10-13T14:03:43;4.60;;;1.92;;
38513;SDS011;24282;48.400;10.808;2023-10-13T14:06:11;3.85;;;2.13;;
38513;SDS011;24282;48.400;10.808;2023-10-13T14:08:47;3.83;;;1.92;;
38513;SDS011;24282;48.400;10.808;2023-10-13T14:11:16;4.65;;;1.98;;
38513;SDS011;24282;48.400;10.808;2023-10-13T14:14:01;3.97;;;2.03;;
38513;SDS011;24282;48.400;10.808;2023-10-13T14:16:29;2.47;;;1.55;;
38513;SDS011;24282;48.400;10.808;2023-10-13T14:18:58;4.50;;;2.20;;
38513;SDS011;24282;48.400;10.808;2023-10-13T14:21:27;4.97;;;2.03;;
38513;SDS011;24282;48.400;10.808;2023-10-13T14:23:53;5.13;;;1.92;;
38513;SDS011;24282;48.400;10.808;2023-10-13T14:26:19;5.47;;;2.33;;
38513;SDS011;24282;48.400;10.808;2023-10-13T14:28:49;3.10;;;1.98;;
38513;SDS011;24282;48.400;10.808;2023-10-13T14:31:33;6.00;;;2.15;;
38513;SDS011;24282;48.400;10.808;2023-10-13T14:34:01;6.85;;;2.30;;
38513;SDS011;24282;48.400;10.808;2023-10-13T14:36:27;5.93;;;1.90;;
38513;SDS011;24282;48.400;10.808;2023-10-13T14:39:00;6.97;;;1.95;;
38513;SDS011;24282;48.400;10.808;2023-10-13T14:41:27;3.78;;;2.08;;
38513;SDS011;24282;48.400;10.808;2023-10-13T14:43:52;5.45;;;2.05;;
38513;SDS011;24282;48.400;10.808;2023-10-13T14:46:21;5.85;;;1.67;;
38513;SDS011;24282;48.400;10.808;2023-10-13T14:48:53;4.82;;;2.30;;
38513;SDS011;24282;48.400;10.808;2023-10-13T14:51:19;6.10;;;2.05;;
38513;SDS011;24282;48.400;10.808;2023-10-13T14:53:46;4.70;;;2.03;;
38513;SDS011;24282;48.400;10.808;2023-10-13T14:56:12;4.22;;;2.05;;
38513;SDS011;24282;48.400;10.808;2023-10-13T14:58:39;5.40;;;2.25;;
38513;SDS011;24282;48.400;10.808;2023-10-13T15:01:12;3.78;;;2.03;;
38513;SDS011;24282;48.400;10.808;2023-10-13T15:03:45;4.00;;;1.90;;
38513;SDS011;24282;48.400;10.808;2023-10-13T15:06:18;5.22;;;2.10;;
38513;SDS011;24282;48.400;10.808;2023-10-13T15:08:46;5.80;;;2.20;;
38513;SDS011;24282;48.400;10.808;2023-10-13T15:11:13;4.13;;;2.00;;
38513;SDS011;24282;48.400;10.808;2023-10-13T15:13:40;4.63;;;1.90;;
38513;SDS011;24282;48.400;10.808;2023-10-13T15:16:15;3.72;;;2.10;;
38513;SDS011;24282;48.400;10.808;2023-10-13T15:18:49;4.57;;;2.40;;
38513;SDS011;24282;48.400;10.808;2023-10-13T15:21:21;4.10;;;2.15;;
38513;SDS011;24282;48.400;10.808;2023-10-13T15:24:02;5.70;;;2.15;;
38513;SDS011;24282;48.400;10.808;2023-10-13T15:26:29;3.90;;;2.20;;
38513;SDS011;24282;48.400;10.808;2023-10-13T15:28:57;5.60;;;2.40;;
38513;SDS011;24282;48.400;10.808;2023-10-13T15:31:26;4.90;;;2.05;;
38513;SDS011;24282;48.400;10.808;2023-10-13T15:34:03;4.00;;;2.00;;
38513;SDS011;24282;48.400;10.808;2023-10-13T15:36:38;3.92;;;1.90;;
38513;SDS011;24282;48.400;10.808;2023-10-13T15:39:05;3.92;;;2.42;;
38513;SDS011;24282;48.400;10.808;2023-10-13T15:41:33;4.82;;;1.95;;
38513;SDS011;24282;48.400;10.808;2023-10-13T15:43:59;4.25;;;2.42;;
38513;SDS011;24282;48.400;10.808;2023-10-13T15:46:26;3.20;;;1.80;;
38513;SDS011;24282;48.400;10.808;2023-10-13T15:48:52;3.83;;;1.98;;
38513;SDS011;24282;48.400;10.808;2023-10-13T15:51:18;4.97;;;2.13;;
38513;SDS011;24282;48.400;10.808;2023-10-13T15:53:45;4.40;;;2.35;;
38513;SDS011;24282;48.400;10.808;2023-10-13T15:56:14;4.60;;;2.10;;
38513;SDS011;24282;48.400;10.808;2023-10-13T15:58:40;5.82;;;2.20;;
38513;SDS011;24282;48.400;10.808;2023-10-13T16:01:09;4.65;;;2.50;;